sensor_id;sensor_type;location;lat;lon;timestamp;P1;durP1;ratioP1;P2;durP2;ratioP2
49890;SDS011;35780;55.568;37.492;2023-06-26T11:20:10;8.77;;;5.70;;
49890;SDS011;35780;55.568;37.492;2023-06-26T11:22:39;7.68;;;5.68;;
49890;SDS011;35780;55.568;37.492;2023-06-26T11:25:06;11.32;;;5.82;;
49890;SDS011;35780;55.568;37.492;2023-06-26T11:30:11;9.98;;;6.35;;
49890;SDS011;35780;55.568;37.492;2023-06-26T11:32:40;15.23;;;5.95;;
49890;SDS011;35780;55.568;37.492;2023-06-26T11:35:06;7.90;;;6.40;;
49890;SDS011;35780;55.568;37.492;2023-06-26T11:37:32;8.27;;;6.65;;
49890;SDS011;35780;55.568;37.492;2023-06-26T11:39:58;7.05;;;6.18;;
49890;SDS011;35780;55.568;37.492;2023-06-26T11:42:23;10.07;;;7.28;;
49890;SDS011;35780;55.568;37.492;2023-06-26T11:44:50;10.25;;;6.50;;
49890;SDS011;35780;55.568;37.492;2023-06-26T11:47:19;8.05;;;6.47;;
49890;SDS011;35780;55.568;37.492;2023-06-26T11:49:46;9.57;;;7.15;;
49890;SDS011;35780;55.568;37.492;2023-06-26T11:52:13;12.50;;;7.28;;
49890;SDS011;35780;55.568;37.492;2023-06-26T11:54:39;12.05;;;7.35;;
49890;SDS011;35780;55.568;37.492;2023-06-26T11:57:04;10.50;;;6.40;;
49890;SDS011;35780;55.568;37.492;2023-06-26T11:59:39;10.65;;;6.88;;
49890;SDS011;35780;55.568;37.492;2023-06-26T12:02:09;18.10;;;7.68;;
49890;SDS011;35780;55.568;37.492;2023-06-26T12:04:36;8.15;;;6.38;;
49890;SDS011;35780;55.568;37.492;2023-06-26T12:07:04;7.22;;;6.10;;
49890;SDS011;35780;55.568;37.492;2023-06-26T12:09:32;10.38;;;6.50;;
49890;SDS011;35780;55.568;37.492;2023-06-26T12:11:58;10.65;;;6.35;;
49890;SDS011;35780;55.568;37.492;2023-06-26T12:14:25;8.38;;;5.82;;
49890;SDS011;35780;55.568;37.492;2023-06-26T12:16:53;8.38;;;6.60;;
49890;SDS011;35780;55.568;37.492;2023-06-26T12:19:23;8.05;;;6.72;;
49890;SDS011;35780;55.568;37.492;2023-06-26T12:21:50;10.20;;;6.20;;
49890;SDS011;35780;55.568;37.492;2023-06-26T12:24:19;9.75;;;6.28;;
49890;SDS011;35780;55.568;37.492;2023-06-26T12:26:47;7.28;;;6.10;;
49890;SDS011;35780;55.568;37.492;2023-06-26T12:29:18;9.00;;;5.90;;
49890;SDS011;35780;55.568;37.492;2023-06-26T12:31:44;11.45;;;6.60;;
49890;SDS011;35780;55.568;37.492;2023-06-26T12:34:12;7.63;;;6.18;;
49890;SDS011;35780;55.568;37.492;2023-06-26T12:36:42;5.68;;;4.80;;
49890;SDS011;35780;55.568;37.492;2023-06-26T12:39:10;6.47;;;5.00;;
49890;SDS011;35780;55.568;37.492;2023-06-26T12:42:00;10.87;;;5.60;;
49890;SDS011;35780;55.568;37.492;2023-06-26T12:44:30;7.28;;;5.32;;
49890;SDS011;35780;55.568;37.492;2023-06-26T12:47:01;7.57;;;5.75;;
49890;SDS011;35780;55.568;37.492;2023-06-26T12:49:31;19.27;;;15.25;;
49890;SDS011;35780;55.568;37.492;2023-06-26T12:52:00;15.30;;;7.70;;
49890;SDS011;35780;55.568;37.492;2023-06-26T12:54:29;8.13;;;6.45;;
49890;SDS011;35780;55.568;37.492;2023-06-26T12:56:54;10.35;;;5.72;;
49890;SDS011;35780;55.568;37.492;2023-06-26T12:59:20;9.82;;;6.30;;
49890;SDS011;35780;55.568;37.492;2023-06-26T13:01:46;11.18;;;5.75;;
49890;SDS011;35780;55.568;37.492;2023-06-26T13:04:12;13.93;;;6.60;;
49890;SDS011;35780;55.568;37.492;2023-06-26T13:06:37;8.85;;;7.93;;
49890;SDS011;35780;55.568;37.492;2023-06-26T13:09:05;10.23;;;6.20;;
49890;SDS011;35780;55.568;37.492;2023-06-26T13:11:31;11.65;;;9.88;;
49890;SDS011;35780;55.568;37.492;2023-06-26T13:14:00;12.10;;;6.07;;
49890;SDS011;35780;55.568;37.492;2023-06-26T13:16:25;9.10;;;6.40;;
49890;SDS011;35780;55.568;37.492;2023-06-26T13:18:51;14.05;;;6.82;;
49890;SDS011;35780;55.568;37.492;2023-06-26T13:21:16;9.18;;;6.07;;
49890;SDS011;35780;55.568;37.492;2023-06-26T13:23:46;17.08;;;6.30;;
49890;SDS011;35780;55.568;37.492;2023-06-26T13:26:19;8.43;;;6.28;;
49890;SDS011;35780;55.568;37.492;2023-06-26T13:28:45;8.07;;;5.85;;
49890;SDS011;35780;55.568;37.492;2023-06-26T13:31:10;12.18;;;8.35;;
49890;SDS011;35780;55.568;37.492;2023-06-26T13:33:36;10.80;;;8.13;;
49890;SDS011;35780;55.568;37.492;2023-06-26T13:36:01;11.23;;;7.70;;
49890;SDS011;35780;55.568;37.492;2023-06-26T13:38:29;11.32;;;7.88;;
49890;SDS011;35780;55.568;37.492;2023-06-26T13:40:55;7.88;;;6.22;;
49890;SDS011;35780;55.568;37.492;2023-06-26T13:43:25;11.10;;;6.05;;
49890;SDS011;35780;55.568;37.492;2023-06-26T13:45:52;13.50;;;8.90;;
49890;SDS011;35780;55.568;37.492;2023-06-26T13:48:17;7.82;;;6.90;;
49890;SDS011;35780;55.568;37.492;2023-06-26T13:50:43;9.63;;;7.03;;
49890;SDS011;35780;55.568;37.492;2023-06-26T13:53:09;9.15;;;6.88;;
49890;SDS011;35780;55.568;37.492;2023-06-26T13:55:36;8.05;;;6.10;;
49890;SDS011;35780;55.568;37.492;2023-06-26T13:58:03;9.02;;;5.57;;
49890;SDS011;35780;55.568;37.492;2023-06-26T14:00:30;12.90;;;6.90;;
49890;SDS011;35780;55.568;37.492;2023-06-26T14:02:56;10.07;;;5.78;;
49890;SDS011;35780;55.568;37.492;2023-06-26T14:05:21;6.97;;;6.15;;
49890;SDS011;35780;55.568;37.492;2023-06-26T14:07:50;9.88;;;7.40;;
49890;SDS011;35780;55.568;37.492;2023-06-26T14:10:15;9.00;;;6.40;;
49890;SDS011;35780;55.568;37.492;2023-06-26T14:12:41;6.97;;;5.10;;
49890;SDS011;35780;55.568;37.492;2023-06-26T14:15:06;11.80;;;5.85;;
49890;SDS011;35780;55.568;37.492;2023-06-26T14:17:32;9.88;;;5.60;;
49890;SDS011;35780;55.568;37.492;2023-06-26T14:19:58;7.57;;;6.00;;
49890;SDS011;35780;55.568;37.492;2023-06-26T14:22:24;10.68;;;6.50;;
49890;SDS011;35780;55.568;37.492;2023-06-26T14:24:50;10.35;;;6.55;;
49890;SDS011;35780;55.568;37.492;2023-06-26T14:27:15;7.82;;;6.13;;
49890;SDS011;35780;55.568;37.492;2023-06-26T14:29:41;8.73;;;6.38;;
49890;SDS011;35780;55.568;37.492;2023-06-26T14:32:06;8.85;;;6.20;;
49890;SDS011;35780;55.568;37.492;2023-06-26T14:34:34;12.80;;;6.72;;
49890;SDS011;35780;55.568;37.492;2023-06-26T14:37:00;8.57;;;6.57;;
49890;SDS011;35780;55.568;37.492;2023-06-26T14:39:25;7.35;;;5.68;;
49890;SDS011;35780;55.568;37.492;2023-06-26T14:41:51;9.90;;;6.10;;
49890;SDS011;35780;55.568;37.492;2023-06-26T14:44:19;10.95;;;6.07;;
49890;SDS011;35780;55.568;37.492;2023-06-26T14:46:44;9.27;;;6.15;;
49890;SDS011;35780;55.568;37.492;2023-06-26T14:49:10;10.15;;;5.88;;
49890;SDS011;35780;55.568;37.492;2023-06-26T14:51:35;11.77;;;6.50;;
49890;SDS011;35780;55.568;37.492;2023-06-26T14:54:01;9.05;;;6.93;;
49890;SDS011;35780;55.568;37.492;2023-06-26T14:56:26;7.55;;;6.28;;
49890;SDS011;35780;55.568;37.492;2023-06-26T14:58:52;9.63;;;6.93;;
49890;SDS011;35780;55.568;37.492;2023-06-26T15:01:18;7.97;;;5.65;;
49890;SDS011;35780;55.568;37.492;2023-06-26T15:03:45;9.43;;;6.00;;
49890;SDS011;35780;55.568;37.492;2023-06-26T15:06:11;12.45;;;6.43;;
49890;SDS011;35780;55.568;37.492;2023-06-26T15:08:37;9.57;;;5.72;;
49890;SDS011;35780;55.568;37.492;2023-06-26T15:11:03;6.90;;;5.55;;
49890;SDS011;35780;55.568;37.492;2023-06-26T15:13:28;10.85;;;8.32;;
49890;SDS011;35780;55.568;37.492;2023-06-26T15:15:56;29.60;;;23.38;;
49890;SDS011;35780;55.568;37.492;2023-06-26T15:18:22;15.05;;;11.93;;
49890;SDS011;35780;55.568;37.492;2023-06-26T15:20:47;9.48;;;7.88;;
49890;SDS011;35780;55.568;37.492;2023-06-26T15:23:13;7.93;;;5.90;;
49890;SDS011;35780;55.568;37.492;2023-06-26T15:25:38;7.47;;;6.10;;
49890;SDS011;35780;55.568;37.492;2023-06-26T15:28:04;6.70;;;5.78;;
49890;SDS011;35780;55.568;37.492;2023-06-26T15:30:30;10.90;;;6.00;;
49890;SDS011;35780;55.568;37.492;2023-06-26T15:32:56;9.98;;;5.78;;
49890;SDS011;35780;55.568;37.492;2023-06-26T15:35:21;8.40;;;5.55;;
49890;SDS011;35780;55.568;37.492;2023-06-26T15:37:47;7.32;;;5.55;;
49890;SDS011;35780;55.568;37.492;2023-06-26T15:40:14;8.80;;;5.97;;
49890;SDS011;35780;55.568;37.492;2023-06-26T15:42:46;8.43;;;5.75;;
49890;SDS011;35780;55.568;37.492;2023-06-26T15:45:12;9.55;;;6.03;;
49890;SDS011;35780;55.568;37.492;2023-06-26T15:47:38;11.13;;;6.32;;
49890;SDS011;35780;55.568;37.492;2023-06-26T15:50:04;8.32;;;6.10;;
49890;SDS011;35780;55.568;37.492;2023-06-26T15:52:30;8.02;;;4.57;;
49890;SDS011;35780;55.568;37.492;2023-06-26T15:54:55;11.18;;;7.95;;
49890;SDS011;35780;55.568;37.492;2023-06-26T15:57:21;11.52;;;5.15;;
49890;SDS011;35780;55.568;37.492;2023-06-26T15:59:46;9.07;;;4.53;;
49890;SDS011;35780;55.568;37.492;2023-06-26T16:02:12;13.45;;;5.30;;
49890;SDS011;35780;55.568;37.492;2023-06-26T16:04:37;7.88;;;3.72;;
49890;SDS011;35780;55.568;37.492;2023-06-26T16:07:03;9.02;;;5.57;;
49890;SDS011;35780;55.568;37.492;2023-06-26T16:09:28;11.77;;;4.97;;
49890;SDS011;35780;55.568;37.492;2023-06-26T16:11:54;8.32;;;4.55;;
49890;SDS011;35780;55.568;37.492;2023-06-26T16:14:19;7.10;;;5.05;;
49890;SDS011;35780;55.568;37.492;2023-06-26T16:16:45;7.65;;;5.78;;
49890;SDS011;35780;55.568;37.492;2023-06-26T16:19:10;7.65;;;3.95;;
49890;SDS011;35780;55.568;37.492;2023-06-26T16:21:36;5.70;;;4.13;;
49890;SDS011;35780;55.568;37.492;2023-06-26T16:24:01;7.43;;;4.38;;
49890;SDS011;35780;55.568;37.492;2023-06-26T16:26:27;6.57;;;4.85;;
49890;SDS011;35780;55.568;37.492;2023-06-26T16:28:52;8.02;;;4.90;;
49890;SDS011;35780;55.568;37.492;2023-06-26T16:31:18;9.68;;;5.35;;
49890;SDS011;35780;55.568;37.492;2023-06-26T16:33:43;5.65;;;4.65;;
49890;SDS011;35780;55.568;37.492;2023-06-26T16:36:09;8.27;;;4.88;;
49890;SDS011;35780;55.568;37.492;2023-06-26T16:38:35;11.52;;;5.97;;
49890;SDS011;35780;55.568;37.492;2023-06-26T16:41:02;8.65;;;4.65;;
49890;SDS011;35780;55.568;37.492;2023-06-26T16:43:30;9.75;;;5.72;;
49890;SDS011;35780;55.568;37.492;2023-06-26T16:45:58;7.95;;;5.63;;
49890;SDS011;35780;55.568;37.492;2023-06-26T16:48:24;14.25;;;10.05;;
49890;SDS011;35780;55.568;37.492;2023-06-26T16:50:49;8.63;;;6.28;;
49890;SDS011;35780;55.568;37.492;2023-06-26T16:53:15;7.82;;;5.80;;
49890;SDS011;35780;55.568;37.492;2023-06-26T16:55:41;10.15;;;5.50;;
49890;SDS011;35780;55.568;37.492;2023-06-26T16:58:07;10.20;;;6.88;;
49890;SDS011;35780;55.568;37.492;2023-06-26T17:00:32;12.30;;;6.75;;
49890;SDS011;35780;55.568;37.492;2023-06-26T17:03:01;14.23;;;11.13;;
49890;SDS011;35780;55.568;37.492;2023-06-26T17:05:27;9.82;;;6.47;;
49890;SDS011;35780;55.568;37.492;2023-06-26T17:07:52;15.15;;;6.70;;
49890;SDS011;35780;55.568;37.492;2023-06-26T17:10:18;12.68;;;8.05;;
49890;SDS011;35780;55.568;37.492;2023-06-26T17:12:44;8.77;;;6.30;;
49890;SDS011;35780;55.568;37.492;2023-06-26T17:15:09;13.52;;;6.93;;
49890;SDS011;35780;55.568;37.492;2023-06-26T17:17:35;10.20;;;6.03;;
49890;SDS011;35780;55.568;37.492;2023-06-26T17:20:01;8.85;;;6.57;;
49890;SDS011;35780;55.568;37.492;2023-06-26T17:22:29;10.57;;;7.25;;
49890;SDS011;35780;55.568;37.492;2023-06-26T17:24:54;30.42;;;23.48;;
49890;SDS011;35780;55.568;37.492;2023-06-26T17:27:23;13.35;;;8.52;;
49890;SDS011;35780;55.568;37.492;2023-06-26T17:29:52;11.73;;;7.90;;
49890;SDS011;35780;55.568;37.492;2023-06-26T17:32:18;9.65;;;6.22;;
49890;SDS011;35780;55.568;37.492;2023-06-26T17:34:43;11.43;;;6.43;;
49890;SDS011;35780;55.568;37.492;2023-06-26T17:37:09;8.85;;;5.95;;
49890;SDS011;35780;55.568;37.492;2023-06-26T17:39:34;9.82;;;5.50;;
49890;SDS011;35780;55.568;37.492;2023-06-26T17:42:00;8.77;;;5.85;;
49890;SDS011;35780;55.568;37.492;2023-06-26T17:44:27;11.95;;;6.57;;
49890;SDS011;35780;55.568;37.492;2023-06-26T17:46:54;11.02;;;6.38;;
49890;SDS011;35780;55.568;37.492;2023-06-26T17:49:20;10.85;;;6.78;;
49890;SDS011;35780;55.568;37.492;2023-06-26T17:51:46;11.40;;;8.52;;
49890;SDS011;35780;55.568;37.492;2023-06-26T17:54:12;9.95;;;6.15;;
49890;SDS011;35780;55.568;37.492;2023-06-26T17:56:37;10.93;;;6.28;;
49890;SDS011;35780;55.568;37.492;2023-06-26T17:59:03;14.05;;;6.13;;
49890;SDS011;35780;55.568;37.492;2023-06-26T18:01:29;10.85;;;6.30;;
49890;SDS011;35780;55.568;37.492;2023-06-26T18:03:55;12.32;;;8.35;;
49890;SDS011;35780;55.568;37.492;2023-06-26T18:06:20;22.60;;;14.93;;
49890;SDS011;35780;55.568;37.492;2023-06-26T18:08:45;18.10;;;8.48;;
49890;SDS011;35780;55.568;37.492;2023-06-26T18:11:11;17.77;;;9.30;;
49890;SDS011;35780;55.568;37.492;2023-06-26T18:13:36;14.40;;;7.53;;
49890;SDS011;35780;55.568;37.492;2023-06-26T18:16:02;18.58;;;7.65;;
49890;SDS011;35780;55.568;37.492;2023-06-26T18:18:27;11.88;;;6.85;;
49890;SDS011;35780;55.568;37.492;2023-06-26T18:20:53;13.90;;;6.95;;
49890;SDS011;35780;55.568;37.492;2023-06-26T18:23:18;11.88;;;7.25;;
49890;SDS011;35780;55.568;37.492;2023-06-26T18:25:44;13.57;;;7.22;;
49890;SDS011;35780;55.568;37.492;2023-06-26T18:28:09;27.20;;;17.85;;
49890;SDS011;35780;55.568;37.492;2023-06-26T18:30:37;40.90;;;27.48;;
49890;SDS011;35780;55.568;37.492;2023-06-26T18:33:02;14.98;;;9.90;;
49890;SDS011;35780;55.568;37.492;2023-06-26T18:35:28;16.60;;;10.02;;
49890;SDS011;35780;55.568;37.492;2023-06-26T18:37:53;19.50;;;7.97;;
49890;SDS011;35780;55.568;37.492;2023-06-26T18:40:20;10.63;;;7.85;;
49890;SDS011;35780;55.568;37.492;2023-06-26T18:42:45;10.82;;;7.70;;
49890;SDS011;35780;55.568;37.492;2023-06-26T18:45:11;13.65;;;7.53;;
49890;SDS011;35780;55.568;37.492;2023-06-26T18:47:37;15.98;;;9.40;;
49890;SDS011;35780;55.568;37.492;2023-06-26T18:50:03;16.42;;;8.60;;
49890;SDS011;35780;55.568;37.492;2023-06-26T18:52:29;11.93;;;6.88;;
49890;SDS011;35780;55.568;37.492;2023-06-26T18:54:55;13.65;;;7.47;;
49890;SDS011;35780;55.568;37.492;2023-06-26T18:57:20;10.95;;;7.28;;
49890;SDS011;35780;55.568;37.492;2023-06-26T18:59:46;10.18;;;7.15;;
49890;SDS011;35780;55.568;37.492;2023-06-26T19:02:11;13.38;;;7.20;;
49890;SDS011;35780;55.568;37.492;2023-06-26T19:04:37;14.77;;;7.40;;
49890;SDS011;35780;55.568;37.492;2023-06-26T19:07:04;12.48;;;7.45;;
49890;SDS011;35780;55.568;37.492;2023-06-26T19:09:30;15.63;;;7.82;;
49890;SDS011;35780;55.568;37.492;2023-06-26T19:11:56;12.82;;;8.35;;
49890;SDS011;35780;55.568;37.492;2023-06-26T19:14:21;11.80;;;7.68;;
49890;SDS011;35780;55.568;37.492;2023-06-26T19:16:47;10.93;;;7.38;;
49890;SDS011;35780;55.568;37.492;2023-06-26T19:19:12;12.15;;;7.90;;
49890;SDS011;35780;55.568;37.492;2023-06-26T19:21:38;14.77;;;6.80;;
49890;SDS011;35780;55.568;37.492;2023-06-26T19:24:08;15.85;;;7.25;;
49890;SDS011;35780;55.568;37.492;2023-06-26T19:26:34;17.67;;;8.27;;
49890;SDS011;35780;55.568;37.492;2023-06-26T19:29:00;18.52;;;8.18;;
49890;SDS011;35780;55.568;37.492;2023-06-26T19:31:26;22.55;;;13.40;;
49890;SDS011;35780;55.568;37.492;2023-06-26T19:33:51;10.77;;;8.32;;
49890;SDS011;35780;55.568;37.492;2023-06-26T19:36:17;17.08;;;8.02;;
49890;SDS011;35780;55.568;37.492;2023-06-26T19:38:46;11.70;;;7.43;;
49890;SDS011;35780;55.568;37.492;2023-06-26T19:41:12;12.50;;;7.45;;
49890;SDS011;35780;55.568;37.492;2023-06-26T19:43:37;15.10;;;6.97;;
49890;SDS011;35780;55.568;37.492;2023-06-26T19:46:02;10.43;;;7.28;;
49890;SDS011;35780;55.568;37.492;2023-06-26T19:48:28;12.07;;;7.80;;
49890;SDS011;35780;55.568;37.492;2023-06-26T19:50:54;16.13;;;7.80;;
49890;SDS011;35780;55.568;37.492;2023-06-26T19:53:20;40.90;;;27.80;;
49890;SDS011;35780;55.568;37.492;2023-06-26T19:55:48;16.45;;;11.68;;
49890;SDS011;35780;55.568;37.492;2023-06-26T19:58:13;12.38;;;8.50;;
49890;SDS011;35780;55.568;37.492;2023-06-26T20:00:39;12.70;;;7.15;;
49890;SDS011;35780;55.568;37.492;2023-06-26T20:03:04;11.73;;;7.50;;
49890;SDS011;35780;55.568;37.492;2023-06-26T20:05:30;15.55;;;7.63;;
49890;SDS011;35780;55.568;37.492;2023-06-26T20:07:55;9.68;;;7.10;;
49890;SDS011;35780;55.568;37.492;2023-06-26T20:10:21;17.30;;;7.93;;
49890;SDS011;35780;55.568;37.492;2023-06-26T20:12:47;21.05;;;8.02;;
49890;SDS011;35780;55.568;37.492;2023-06-26T20:15:12;20.90;;;8.27;;
49890;SDS011;35780;55.568;37.492;2023-06-26T20:17:38;23.92;;;9.60;;
49890;SDS011;35780;55.568;37.492;2023-06-26T20:20:03;19.42;;;10.30;;
49890;SDS011;35780;55.568;37.492;2023-06-26T20:22:31;48.88;;;23.58;;
49890;SDS011;35780;55.568;37.492;2023-06-26T20:24:57;45.58;;;21.38;;
49890;SDS011;35780;55.568;37.492;2023-06-26T20:27:22;35.20;;;16.48;;
49890;SDS011;35780;55.568;37.492;2023-06-26T20:29:48;51.47;;;23.95;;
49890;SDS011;35780;55.568;37.492;2023-06-26T20:32:16;35.83;;;18.25;;
49890;SDS011;35780;55.568;37.492;2023-06-26T20:34:42;31.05;;;16.25;;
49890;SDS011;35780;55.568;37.492;2023-06-26T20:37:08;23.73;;;11.45;;
49890;SDS011;35780;55.568;37.492;2023-06-26T20:39:33;27.90;;;13.00;;
49890;SDS011;35780;55.568;37.492;2023-06-26T20:41:59;27.35;;;12.77;;
49890;SDS011;35780;55.568;37.492;2023-06-26T20:44:25;28.17;;;12.48;;
49890;SDS011;35780;55.568;37.492;2023-06-26T20:46:51;15.57;;;8.45;;
49890;SDS011;35780;55.568;37.492;2023-06-26T20:49:23;17.65;;;8.30;;
49890;SDS011;35780;55.568;37.492;2023-06-26T20:51:50;15.57;;;8.98;;
49890;SDS011;35780;55.568;37.492;2023-06-26T20:54:17;22.92;;;9.45;;
49890;SDS011;35780;55.568;37.492;2023-06-26T20:56:43;14.20;;;8.35;;
49890;SDS011;35780;55.568;37.492;2023-06-26T20:59:09;12.82;;;7.72;;
49890;SDS011;35780;55.568;37.492;2023-06-26T21:01:35;19.52;;;11.57;;
49890;SDS011;35780;55.568;37.492;2023-06-26T21:04:03;22.60;;;13.30;;
49890;SDS011;35780;55.568;37.492;2023-06-26T21:06:29;16.48;;;8.68;;
49890;SDS011;35780;55.568;37.492;2023-06-26T21:08:57;20.30;;;9.23;;
49890;SDS011;35780;55.568;37.492;2023-06-26T21:11:22;21.92;;;10.55;;
49890;SDS011;35780;55.568;37.492;2023-06-26T21:13:48;25.52;;;9.48;;
49890;SDS011;35780;55.568;37.492;2023-06-26T21:16:13;16.58;;;8.18;;
49890;SDS011;35780;55.568;37.492;2023-06-26T21:18:39;16.02;;;8.52;;
49890;SDS011;35780;55.568;37.492;2023-06-26T21:21:04;12.90;;;8.55;;
49890;SDS011;35780;55.568;37.492;2023-06-26T21:23:30;16.15;;;8.38;;
49890;SDS011;35780;55.568;37.492;2023-06-26T21:25:55;14.57;;;7.20;;
49890;SDS011;35780;55.568;37.492;2023-06-26T21:28:21;15.80;;;7.25;;
49890;SDS011;35780;55.568;37.492;2023-06-26T21:30:46;11.30;;;6.55;;
49890;SDS011;35780;55.568;37.492;2023-06-26T21:33:12;12.20;;;6.60;;
49890;SDS011;35780;55.568;37.492;2023-06-26T21:35:37;11.07;;;6.65;;
49890;SDS011;35780;55.568;37.492;2023-06-26T21:38:03;16.05;;;6.82;;
49890;SDS011;35780;55.568;37.492;2023-06-26T21:40:28;15.60;;;7.38;;
49890;SDS011;35780;55.568;37.492;2023-06-26T21:42:54;15.77;;;6.80;;
49890;SDS011;35780;55.568;37.492;2023-06-26T21:45:19;12.30;;;7.30;;
49890;SDS011;35780;55.568;37.492;2023-06-26T21:47:45;10.13;;;6.88;;
49890;SDS011;35780;55.568;37.492;2023-06-26T21:50:10;10.25;;;6.03;;
49890;SDS011;35780;55.568;37.492;2023-06-26T21:52:36;10.05;;;6.25;;
49890;SDS011;35780;55.568;37.492;2023-06-26T21:55:01;9.60;;;5.78;;
49890;SDS011;35780;55.568;37.492;2023-06-26T21:57:29;11.98;;;6.22;;
49890;SDS011;35780;55.568;37.492;2023-06-26T21:59:54;9.38;;;5.82;;
49890;SDS011;35780;55.568;37.492;2023-06-26T22:02:20;8.02;;;5.50;;
49890;SDS011;35780;55.568;37.492;2023-06-26T22:04:48;10.50;;;5.50;;
49890;SDS011;35780;55.568;37.492;2023-06-26T22:07:13;9.23;;;5.00;;
49890;SDS011;35780;55.568;37.492;2023-06-26T22:09:39;6.55;;;4.75;;
49890;SDS011;35780;55.568;37.492;2023-06-26T22:12:04;12.82;;;5.25;;
49890;SDS011;35780;55.568;37.492;2023-06-26T22:14:30;10.80;;;5.40;;
49890;SDS011;35780;55.568;37.492;2023-06-26T22:16:56;6.93;;;4.65;;
49890;SDS011;35780;55.568;37.492;2023-06-26T22:19:21;11.13;;;5.13;;
49890;SDS011;35780;55.568;37.492;2023-06-26T22:21:47;8.68;;;4.90;;
49890;SDS011;35780;55.568;37.492;2023-06-26T22:24:13;7.15;;;5.18;;
49890;SDS011;35780;55.568;37.492;2023-06-26T22:26:38;9.63;;;4.93;;
49890;SDS011;35780;55.568;37.492;2023-06-26T22:29:03;10.63;;;5.43;;
49890;SDS011;35780;55.568;37.492;2023-06-26T22:31:29;10.02;;;4.88;;
49890;SDS011;35780;55.568;37.492;2023-06-26T22:33:54;11.07;;;5.18;;
49890;SDS011;35780;55.568;37.492;2023-06-26T22:36:20;9.57;;;4.95;;
49890;SDS011;35780;55.568;37.492;2023-06-26T22:38:45;10.90;;;5.05;;
49890;SDS011;35780;55.568;37.492;2023-06-26T22:41:11;8.10;;;5.20;;
49890;SDS011;35780;55.568;37.492;2023-06-26T22:43:36;10.77;;;6.20;;
49890;SDS011;35780;55.568;37.492;2023-06-26T22:46:02;10.98;;;6.15;;
49890;SDS011;35780;55.568;37.492;2023-06-26T22:48:27;9.45;;;5.57;;
49890;SDS011;35780;55.568;37.492;2023-06-26T22:50:53;11.02;;;6.05;;
49890;SDS011;35780;55.568;37.492;2023-06-26T22:53:19;10.57;;;5.43;;
49890;SDS011;35780;55.568;37.492;2023-06-26T22:55:49;7.35;;;4.90;;
49890;SDS011;35780;55.568;37.492;2023-06-26T22:58:14;10.30;;;5.47;;
49890;SDS011;35780;55.568;37.492;2023-06-26T23:00:40;9.00;;;5.22;;
49890;SDS011;35780;55.568;37.492;2023-06-26T23:03:05;8.57;;;4.47;;
49890;SDS011;35780;55.568;37.492;2023-06-26T23:05:31;11.85;;;5.13;;
49890;SDS011;35780;55.568;37.492;2023-06-26T23:07:56;8.45;;;4.95;;
49890;SDS011;35780;55.568;37.492;2023-06-26T23:10:22;8.10;;;5.30;;
49890;SDS011;35780;55.568;37.492;2023-06-26T23:12:48;11.68;;;5.35;;
49890;SDS011;35780;55.568;37.492;2023-06-26T23:15:14;10.88;;;5.85;;
49890;SDS011;35780;55.568;37.492;2023-06-26T23:17:40;12.10;;;6.10;;
49890;SDS011;35780;55.568;37.492;2023-06-26T23:20:06;11.32;;;7.10;;
49890;SDS011;35780;55.568;37.492;2023-06-26T23:22:34;11.65;;;5.65;;
49890;SDS011;35780;55.568;37.492;2023-06-26T23:25:02;24.92;;;19.23;;
49890;SDS011;35780;55.568;37.492;2023-06-26T23:27:29;13.05;;;8.25;;
49890;SDS011;35780;55.568;37.492;2023-06-26T23:29:55;10.95;;;6.70;;
49890;SDS011;35780;55.568;37.492;2023-06-26T23:32:20;15.40;;;6.22;;
49890;SDS011;35780;55.568;37.492;2023-06-26T23:34:46;11.38;;;6.00;;
49890;SDS011;35780;55.568;37.492;2023-06-26T23:37:12;13.88;;;6.22;;
49890;SDS011;35780;55.568;37.492;2023-06-26T23:39:38;10.02;;;5.88;;
49890;SDS011;35780;55.568;37.492;2023-06-26T23:42:07;13.63;;;5.78;;
49890;SDS011;35780;55.568;37.492;2023-06-26T23:44:33;10.20;;;5.75;;
49890;SDS011;35780;55.568;37.492;2023-06-26T23:47:01;19.65;;;6.45;;
49890;SDS011;35780;55.568;37.492;2023-06-26T23:49:30;13.68;;;7.03;;
49890;SDS011;35780;55.568;37.492;2023-06-26T23:51:57;10.68;;;5.97;;
49890;SDS011;35780;55.568;37.492;2023-06-26T23:54:22;10.13;;;5.88;;
49890;SDS011;35780;55.568;37.492;2023-06-26T23:56:48;11.70;;;6.22;;
49890;SDS011;35780;55.568;37.492;2023-06-26T23:59:13;13.20;;;6.65;;
